Sunday, August 19, 2018, 12:27 AM GMT
Back to Local

CZBF, Bathurst Airport Aviation Weather Reporting Station

Location: , , Canada Lat: 47.633
Local Time: 12:27 AM GMT ( 0:27 GMT) Lon: -65.75
Time Zone: GMT Elev: 193 ft

Show me the last for .
Show Decoded

2018-08-19 00:00 METAR CZBF 190000Z AUTO 36003KT 9SM CLR 16/14 A2994 RMK SLP140 DENSITY ALT 300FT
                 =
2018-08-18 23:00 METAR CZBF 182300Z AUTO 36003KT 9SM CLR 18/14 A2992 RMK SLP135 DENSITY ALT 500FT
                 =
2018-08-18 22:00 METAR CZBF 182200Z AUTO 02004KT 340V070 9SM CLR 20/15 A2991 RMK SLP129 DENSITY
                 ALT 800FT =
2018-08-18 21:00 METAR CZBF 182100Z AUTO 36004KT 330V070 9SM CLR 20/16 A2989 RMK SLP125 DENSITY
                 ALT 800FT =
2018-08-18 20:00 METAR CZBF 182000Z AUTO 04005KT 020V090 9SM CLR 20/16 A2989 RMK SLP123 DENSITY
                 ALT 800FT =
2018-08-18 19:00 METAR CZBF 181900Z AUTO 05007KT 350V080 9SM CLR 21/16 A2989 RMK SLP122 DENSITY
                 ALT 900FT =
2018-08-18 18:00 METAR CZBF 181800Z AUTO 03006KT 330V060 9SM FEW013 20/16 A2989 RMK SLP123
                 DENSITY ALT 700FT =
2018-08-18 17:00 METAR CZBF 181700Z AUTO 01005KT 310V060 9SM SCT013 20/16 A2989 RMK SLP124
                 DENSITY ALT 700FT =
2018-08-18 16:51 METAR CZBF 181651Z AUTO 01006KT 330V060 9SM SCT013 19/16 A2989 RMK SLP124
                 DENSITY ALT 700FT =
2018-08-18 16:04 METAR CZBF 181604Z AUTO 02006KT 350V060 9SM BKN013 19/16 A2989 RMK SLP125
                 DENSITY ALT 700FT =
2018-08-18 16:00 METAR CZBF 181600Z AUTO 04006KT 360V060 9SM SCT015 19/16 A2989 RMK SLP125
                 DENSITY ALT 700FT =
2018-08-18 15:57 METAR CZBF 181557Z AUTO 03004KT 340V060 9SM SCT015 SCT050 19/16 A2989 RMK SLP125
                 DENSITY ALT 600FT =
2018-08-18 15:00 METAR CZBF 181500Z AUTO 03006KT 9SM SCT011 BKN016 BKN047 BKN055 18/16 A2989 RMK
                 SLP125 DENSITY ALT 600FT =
2018-08-18 14:54 METAR CZBF 181454Z AUTO 03005KT 360V060 9SM FEW009 BKN014 BKN045 18/16 A2989 RMK
                 SLP125 DENSITY ALT 600FT =
2018-08-18 14:00 METAR CZBF 181400Z AUTO 02004KT 340V060 9SM FEW009 OVC037 18/17 A2989 RMK SLP123
                 DENSITY ALT 600FT =
2018-08-18 13:45 METAR CZBF 181345Z AUTO 03003KT 350V060 9SM SCT008 BKN035 OVC043 18/17 A2989 RMK
                 SLP123 DENSITY ALT 600FT =
2018-08-18 13:34 METAR CZBF 181334Z AUTO 03003KT 360V060 9SM FEW005 BKN010 BKN035 OVC043 18/17
                 A2989 RMK SLP123 DENSITY ALT 500FT =
2018-08-18 13:00 METAR CZBF 181300Z AUTO 03003KT 350V050 7SM FEW003 OVC035 17/17 A2989 RMK SLP123
                 DENSITY ALT 500FT =
2018-08-18 12:53 METAR CZBF 181253Z AUTO 36003KT 320V050 6SM BR FEW003 OVC035 17/16 A2989 RMK
                 SLP125 DENSITY ALT 400FT =
2018-08-18 12:25 METAR CZBF 181225Z AUTO 01003KT 340V040 5SM BR OVC033 16/16 A2989 RMK SLP125
                 DENSITY ALT 400FT =
2018-08-18 12:00 METAR CZBF 181200Z AUTO 34002KT 8SM OVC033 16/16 A2990 RMK SLP127 DENSITY ALT
                 400FT =
2018-08-18 11:25 METAR CZBF 181125Z AUTO VRB02KT 9SM FEW007 OVC040 16/15 A2991 RMK SLP130 DENSITY
                 ALT 300FT
2018-08-18 11:13 METAR CZBF 181113Z AUTO VRB02KT 8SM -RA SCT007 OVC042 16/15 A2991 RMK SLP130
                 DENSITY ALT 300FT =
2018-08-18 11:12 METAR CZBF 181112Z AUTO VRB02KT 8SM -RA BKN007 OVC042 16/15 A2991 RMK SLP130
                 DENSITY ALT 300FT =
2018-08-18 11:00 METAR CZBF 181100Z AUTO 32002KT 8SM -RA BKN009 OVC042 16/15 A2991 RMK SLP130
                 DENSITY ALT 300FT =
2018-08-18 10:59 METAR CZBF 181059Z AUTO 32002KT 8SM -RA BKN009 OVC042 16/15 A2991 RMK SLP129
                 DENSITY ALT 300FT =
2018-08-18 10:50 METAR CZBF 181050Z AUTO 30002KT 9SM OVC009 16/15 A2991 RMK SLP130 DENSITY ALT
                 300FT =
2018-08-18 10:14 METAR CZBF 181014Z AUTO 00000KT 7SM -RA BKN009 BKN015 OVC022 15/15 A2991 RMK
                 SLP130 DENSITY ALT 200FT =
2018-08-18 10:00 METAR CZBF 181000Z AUTO VRB02KT 7SM -RA FEW009 BKN015 BKN022 OVC085 15/15 A2991
                 RMK SLP130 DENSITY ALT 200FT =
2018-08-18 09:33 METAR CZBF 180933Z AUTO 00000KT 9SM -RA BKN015 OVC095 15/15 A2991 RMK SLP130
                 DENSITY ALT 200FT =
2018-08-18 09:12 METAR CZBF 180912Z AUTO VRB02KT 6SM -RA BR FEW060 OVC090 15/15 A2991 RMK SLP129
                 DENSITY ALT 200FT =
2018-08-18 09:02 METAR CZBF 180902Z AUTO VRB02KT 5SM -RA BR FEW060 SCT069 OVC087 16/15 A2990 RMK
                 SLP127 DENSITY ALT 300FT =
2018-08-18 09:00 METAR CZBF 180900Z AUTO 00000KT 6SM -RA BR BKN065 OVC086 16/15 A2990 RMK SLP126
                 DENSITY ALT 300FT =
2018-08-18 08:44 METAR CZBF 180844Z AUTO VRB03KT 6SM -RA BR BKN065 OVC088 16/15 A2990 RMK SLP127
                 DENSITY ALT 300FT =
2018-08-18 08:36 METAR CZBF 180836Z AUTO 00000KT 5SM -RA BR OVC060 16/15 A2990 RMK SLP127 DENSITY
                 ALT 300FT =
2018-08-18 08:00 METAR CZBF 180800Z AUTO VRB09KT 9SM -RA OVC070 16/15 A2991 RMK SLP130 DENSITY
                 ALT 300FT =
2018-08-18 07:37 METAR CZBF 180737Z AUTO 33006KT 290V360 6SM RA BR BKN033 OVC070 16/15 A2991 RMK
                 SLP129 DENSITY ALT 300FT =
2018-08-18 07:33 METAR CZBF 180733Z AUTO 32008KT 3SM RA BR BKN033 OVC065 16/15 A2990 RMK SLP128
                 DENSITY ALT 300FT =
2018-08-18 07:24 METAR CZBF 180724Z AUTO 29007KT 5SM +RA BR OVC035 16/15 A2991 RMK SLP131 DENSITY
                 ALT 300FT =
2018-08-18 07:22 METAR CZBF 180722Z AUTO 30007KT 220V310 7SM +RA OVC035 16/14 A2991 RMK SLP131
                 DENSITY ALT 300FT =
2018-08-18 07:12 METAR CZBF 180712Z AUTO 22003KT 150V260 9SM -RA BKN037 OVC044 16/14 A2991 RMK
                 SLP131 DENSITY ALT 300FT =
2018-08-18 07:00 METAR CZBF 180700Z AUTO VRB02KT 9SM BKN042 BKN050 OVC090 16/15 A2992 RMK SLP132
                 DENSITY ALT 300FT =
2018-08-18 06:17 METAR CZBF 180617Z AUTO 31004KT 180V320 9SM OVC095 16/15 A2991 RMK SLP131
                 DENSITY ALT 300FT =
2018-08-18 06:00 METAR CZBF 180600Z AUTO VRB02KT 9SM -RA OVC095 16/15 A2991 RMK SLP130 DENSITY
                 ALT 300FT =
2018-08-18 05:08 METAR CZBF 180508Z AUTO VRB02KT 9SM -RA BKN100 OVC120 16/14 A2993 RMK SLP137
                 DENSITY ALT 200FT =
2018-08-18 05:00 METAR CZBF 180500Z AUTO VRB02KT 9SM SCT100 OVC120 16/14 A2993 RMK SLP136 DENSITY
                 ALT 200FT =
2018-08-18 04:00 METAR CZBF 180400Z AUTO 16003KT 9SM OVC150 15/14 A2994 RMK SLP139 DENSITY ALT
                 200FT =
2018-08-18 03:00 METAR CZBF 180300Z AUTO 23003KT 9SM OVC170 15/14 A2995 RMK SLP144 DENSITY ALT
                 200FT =
2018-08-18 02:00 METAR CZBF 180200Z AUTO 22002KT 9SM OVC210 15/14 A2996 RMK SLP148 DENSITY ALT
                 200FT =
2018-08-18 01:00 METAR CZBF 180100Z AUTO 24004KT 9SM SCT210 BKN230 15/14 A2997 RMK SLP151 DENSITY
                 ALT 200FT =

Support USWX by starting your Amazon purchase here.